Morgan Park, Minnesota
Current Conditions -  °F | °C
As of 12:35 PM on Thursday 23 Oct 2014 (Local Time) from KSUW Reporting Station
Overcast Overcast  
Wind Chill: 53°   Ceiling: 800
Heat Index: 53°   Visibility: 10mi
Dew Point: 50°   Wind: 7mph
Humidity: 90%   Direction: 240°WSW
Pressure: 29.97"   Gusts: NA
Location:  46.6753°N, 92.2408°W
Report Text: KSUW 231735Z AUTO 24006KT 10SM OVC008 12/10 A2997 RMK AO2 T01160100
Loading
Personal Weather Stations






























Interactive Weather Map
Tropical Storm Tracking
New forecast layout! Learn more

10-Day Weather Forecast

Advertisements
Track Severe Weather on mobile